Terminal Aerodrome Forecast
Issued by NWS

Home | Current Version | Previous Version | Text Only | Print | Product List | Glossary On
Versions: 1 2 3 4 5 6 7 8 9 10 11 12
173
FTUS45 KRIW 211720
TAFWRL
TAF
KWRL 211720Z 2118/2218 VRB06KT P6SM FEW150
     FM212000 36006KT P6SM FEW150
     FM220300 16006KT P6SM FEW150=

USA.gov is the U.S. government's official web portal to all federal, state and local government web resources and services.